sensor_id;sensor_type;location;lat;lon;timestamp;P1;durP1;ratioP1;P2;durP2;ratioP2
5604;SDS011;9297;47.258;11.362;2023-10-13T00:01:17;12.53;;;4.57;;
5604;SDS011;9297;47.258;11.362;2023-10-13T00:03:44;5.53;;;4.17;;
5604;SDS011;9297;47.258;11.362;2023-10-13T00:06:11;8.67;;;4.70;;
5604;SDS011;9297;47.258;11.362;2023-10-13T00:08:38;5.83;;;4.57;;
5604;SDS011;9297;47.258;11.362;2023-10-13T00:11:05;8.00;;;4.43;;
5604;SDS011;9297;47.258;11.362;2023-10-13T00:13:33;14.20;;;5.00;;
5604;SDS011;9297;47.258;11.362;2023-10-13T00:16:01;7.63;;;4.67;;
5604;SDS011;9297;47.258;11.362;2023-10-13T00:18:29;10.63;;;4.83;;
5604;SDS011;9297;47.258;11.362;2023-10-13T00:20:57;7.47;;;4.57;;
5604;SDS011;9297;47.258;11.362;2023-10-13T00:23:24;12.20;;;5.07;;
5604;SDS011;9297;47.258;11.362;2023-10-13T00:25:51;12.20;;;4.60;;
5604;SDS011;9297;47.258;11.362;2023-10-13T00:28:18;10.23;;;5.20;;
5604;SDS011;9297;47.258;11.362;2023-10-13T00:30:45;6.23;;;4.80;;
5604;SDS011;9297;47.258;11.362;2023-10-13T00:33:14;10.27;;;4.17;;
5604;SDS011;9297;47.258;11.362;2023-10-13T00:35:42;8.70;;;4.33;;
5604;SDS011;9297;47.258;11.362;2023-10-13T00:38:10;5.00;;;4.23;;
5604;SDS011;9297;47.258;11.362;2023-10-13T00:40:37;8.60;;;5.27;;
5604;SDS011;9297;47.258;11.362;2023-10-13T00:43:04;13.00;;;4.93;;
5604;SDS011;9297;47.258;11.362;2023-10-13T00:45:31;9.40;;;5.10;;
5604;SDS011;9297;47.258;11.362;2023-10-13T00:48:00;8.70;;;4.93;;
5604;SDS011;9297;47.258;11.362;2023-10-13T00:50:29;6.40;;;4.60;;
5604;SDS011;9297;47.258;11.362;2023-10-13T00:52:56;14.97;;;5.10;;
5604;SDS011;9297;47.258;11.362;2023-10-13T00:55:24;6.77;;;4.23;;
5604;SDS011;9297;47.258;11.362;2023-10-13T00:57:51;11.30;;;5.30;;
5604;SDS011;9297;47.258;11.362;2023-10-13T01:00:20;11.60;;;4.77;;
5604;SDS011;9297;47.258;11.362;2023-10-13T01:02:47;7.63;;;4.60;;
5604;SDS011;9297;47.258;11.362;2023-10-13T01:05:14;11.17;;;4.33;;
5604;SDS011;9297;47.258;11.362;2023-10-13T01:07:43;12.17;;;4.80;;
5604;SDS011;9297;47.258;11.362;2023-10-13T01:10:10;7.60;;;4.30;;
5604;SDS011;9297;47.258;11.362;2023-10-13T01:12:37;12.17;;;4.80;;
5604;SDS011;9297;47.258;11.362;2023-10-13T01:15:05;10.93;;;5.07;;
5604;SDS011;9297;47.258;11.362;2023-10-13T01:17:32;8.97;;;4.63;;
5604;SDS011;9297;47.258;11.362;2023-10-13T01:19:59;7.03;;;4.63;;
5604;SDS011;9297;47.258;11.362;2023-10-13T01:22:26;6.27;;;4.70;;
5604;SDS011;9297;47.258;11.362;2023-10-13T01:24:55;9.77;;;5.20;;
5604;SDS011;9297;47.258;11.362;2023-10-13T01:27:22;7.30;;;4.70;;
5604;SDS011;9297;47.258;11.362;2023-10-13T01:29:49;8.77;;;4.40;;
5604;SDS011;9297;47.258;11.362;2023-10-13T01:32:17;8.30;;;4.30;;
5604;SDS011;9297;47.258;11.362;2023-10-13T01:34:46;8.90;;;3.93;;
5604;SDS011;9297;47.258;11.362;2023-10-13T01:37:13;7.37;;;4.70;;
5604;SDS011;9297;47.258;11.362;2023-10-13T01:39:40;10.13;;;4.47;;
5604;SDS011;9297;47.258;11.362;2023-10-13T01:42:08;9.83;;;5.07;;
5604;SDS011;9297;47.258;11.362;2023-10-13T01:44:36;8.13;;;4.70;;
5604;SDS011;9297;47.258;11.362;2023-10-13T01:47:03;13.23;;;5.00;;
5604;SDS011;9297;47.258;11.362;2023-10-13T01:49:30;8.97;;;4.60;;
5604;SDS011;9297;47.258;11.362;2023-10-13T01:51:57;8.03;;;5.00;;
5604;SDS011;9297;47.258;11.362;2023-10-13T01:54:24;11.73;;;4.50;;
5604;SDS011;9297;47.258;11.362;2023-10-13T01:56:51;7.90;;;4.50;;
5604;SDS011;9297;47.258;11.362;2023-10-13T01:59:19;9.13;;;4.70;;
5604;SDS011;9297;47.258;11.362;2023-10-13T02:01:47;8.80;;;4.70;;
5604;SDS011;9297;47.258;11.362;2023-10-13T02:04:14;6.30;;;4.40;;
5604;SDS011;9297;47.258;11.362;2023-10-13T02:06:41;6.70;;;4.43;;
5604;SDS011;9297;47.258;11.362;2023-10-13T02:09:08;7.43;;;4.80;;
5604;SDS011;9297;47.258;11.362;2023-10-13T02:11:37;8.67;;;4.80;;
5604;SDS011;9297;47.258;11.362;2023-10-13T02:14:04;5.73;;;4.40;;
5604;SDS011;9297;47.258;11.362;2023-10-13T02:16:33;6.57;;;4.20;;
5604;SDS011;9297;47.258;11.362;2023-10-13T02:19:00;10.40;;;4.87;;
5604;SDS011;9297;47.258;11.362;2023-10-13T02:21:27;6.83;;;4.73;;
5604;SDS011;9297;47.258;11.362;2023-10-13T02:23:54;8.97;;;4.60;;
5604;SDS011;9297;47.258;11.362;2023-10-13T02:26:21;7.50;;;5.03;;
5604;SDS011;9297;47.258;11.362;2023-10-13T02:28:48;6.23;;;4.53;;
5604;SDS011;9297;47.258;11.362;2023-10-13T02:31:15;6.00;;;4.60;;
5604;SDS011;9297;47.258;11.362;2023-10-13T02:33:44;7.97;;;4.53;;
5604;SDS011;9297;47.258;11.362;2023-10-13T02:36:11;7.67;;;4.80;;
5604;SDS011;9297;47.258;11.362;2023-10-13T02:38:38;8.10;;;4.80;;
5604;SDS011;9297;47.258;11.362;2023-10-13T02:41:09;9.30;;;4.73;;
5604;SDS011;9297;47.258;11.362;2023-10-13T02:43:37;9.50;;;4.73;;
5604;SDS011;9297;47.258;11.362;2023-10-13T02:46:04;5.07;;;4.20;;
5604;SDS011;9297;47.258;11.362;2023-10-13T02:48:31;8.60;;;4.43;;
5604;SDS011;9297;47.258;11.362;2023-10-13T02:51:00;8.43;;;4.63;;
5604;SDS011;9297;47.258;11.362;2023-10-13T02:53:27;10.27;;;4.37;;
5604;SDS011;9297;47.258;11.362;2023-10-13T02:55:55;8.50;;;4.80;;
5604;SDS011;9297;47.258;11.362;2023-10-13T02:58:22;7.33;;;4.90;;
5604;SDS011;9297;47.258;11.362;2023-10-13T03:00:50;13.43;;;4.80;;
5604;SDS011;9297;47.258;11.362;2023-10-13T03:03:17;6.70;;;3.97;;
5604;SDS011;9297;47.258;11.362;2023-10-13T03:05:44;8.17;;;4.37;;
5604;SDS011;9297;47.258;11.362;2023-10-13T03:08:13;9.03;;;5.00;;
5604;SDS011;9297;47.258;11.362;2023-10-13T03:10:40;6.07;;;4.70;;
5604;SDS011;9297;47.258;11.362;2023-10-13T03:13:07;6.20;;;4.50;;
5604;SDS011;9297;47.258;11.362;2023-10-13T03:15:34;9.13;;;4.43;;
5604;SDS011;9297;47.258;11.362;2023-10-13T03:18:02;8.63;;;5.10;;
5604;SDS011;9297;47.258;11.362;2023-10-13T03:20:29;7.57;;;4.80;;
5604;SDS011;9297;47.258;11.362;2023-10-13T03:22:56;8.83;;;4.50;;
5604;SDS011;9297;47.258;11.362;2023-10-13T03:25:25;7.47;;;4.97;;
5604;SDS011;9297;47.258;11.362;2023-10-13T03:27:52;7.10;;;5.30;;
5604;SDS011;9297;47.258;11.362;2023-10-13T03:30:19;7.10;;;4.77;;
5604;SDS011;9297;47.258;11.362;2023-10-13T03:32:47;11.60;;;5.03;;
5604;SDS011;9297;47.258;11.362;2023-10-13T03:35:14;10.73;;;5.27;;
5604;SDS011;9297;47.258;11.362;2023-10-13T03:37:41;11.37;;;4.97;;
5604;SDS011;9297;47.258;11.362;2023-10-13T03:40:09;9.53;;;4.67;;
5604;SDS011;9297;47.258;11.362;2023-10-13T03:42:39;7.90;;;4.60;;
5604;SDS011;9297;47.258;11.362;2023-10-13T03:45:06;5.77;;;4.33;;
5604;SDS011;9297;47.258;11.362;2023-10-13T03:47:34;8.70;;;4.90;;
5604;SDS011;9297;47.258;11.362;2023-10-13T03:50:01;9.87;;;4.90;;
5604;SDS011;9297;47.258;11.362;2023-10-13T03:52:28;9.83;;;5.47;;
5604;SDS011;9297;47.258;11.362;2023-10-13T03:54:55;10.50;;;4.50;;
5604;SDS011;9297;47.258;11.362;2023-10-13T03:57:22;8.97;;;4.57;;
5604;SDS011;9297;47.258;11.362;2023-10-13T03:59:51;9.17;;;5.00;;
5604;SDS011;9297;47.258;11.362;2023-10-13T04:02:18;7.33;;;4.40;;
5604;SDS011;9297;47.258;11.362;2023-10-13T04:04:47;10.73;;;5.40;;
5604;SDS011;9297;47.258;11.362;2023-10-13T04:07:14;9.30;;;4.60;;
5604;SDS011;9297;47.258;11.362;2023-10-13T04:09:42;7.30;;;4.87;;
5604;SDS011;9297;47.258;11.362;2023-10-13T04:12:09;8.13;;;4.43;;
5604;SDS011;9297;47.258;11.362;2023-10-13T04:14:36;7.37;;;5.20;;
5604;SDS011;9297;47.258;11.362;2023-10-13T04:17:06;8.87;;;5.00;;
5604;SDS011;9297;47.258;11.362;2023-10-13T04:19:33;9.47;;;4.80;;
5604;SDS011;9297;47.258;11.362;2023-10-13T04:22:00;9.40;;;5.37;;
5604;SDS011;9297;47.258;11.362;2023-10-13T04:24:27;9.63;;;5.13;;
5604;SDS011;9297;47.258;11.362;2023-10-13T04:26:55;6.77;;;4.53;;
5604;SDS011;9297;47.258;11.362;2023-10-13T04:29:22;7.07;;;5.27;;
5604;SDS011;9297;47.258;11.362;2023-10-13T04:31:49;9.53;;;4.80;;
5604;SDS011;9297;47.258;11.362;2023-10-13T04:34:17;5.90;;;4.87;;
5604;SDS011;9297;47.258;11.362;2023-10-13T04:36:44;13.57;;;5.27;;
5604;SDS011;9297;47.258;11.362;2023-10-13T04:39:12;9.57;;;5.10;;
5604;SDS011;9297;47.258;11.362;2023-10-13T04:41:39;9.20;;;5.17;;
5604;SDS011;9297;47.258;11.362;2023-10-13T04:44:11;7.07;;;4.87;;
5604;SDS011;9297;47.258;11.362;2023-10-13T04:46:39;11.00;;;5.77;;
5604;SDS011;9297;47.258;11.362;2023-10-13T04:49:07;7.67;;;5.00;;
5604;SDS011;9297;47.258;11.362;2023-10-13T04:51:35;10.50;;;4.90;;
5604;SDS011;9297;47.258;11.362;2023-10-13T04:54:03;7.53;;;5.20;;
5604;SDS011;9297;47.258;11.362;2023-10-13T04:56:30;8.43;;;4.70;;
5604;SDS011;9297;47.258;11.362;2023-10-13T04:58:57;6.67;;;4.70;;
5604;SDS011;9297;47.258;11.362;2023-10-13T05:01:24;6.97;;;4.57;;
5604;SDS011;9297;47.258;11.362;2023-10-13T05:03:52;7.80;;;4.77;;
5604;SDS011;9297;47.258;11.362;2023-10-13T05:06:19;7.90;;;4.77;;
5604;SDS011;9297;47.258;11.362;2023-10-13T05:08:48;5.93;;;4.80;;
5604;SDS011;9297;47.258;11.362;2023-10-13T05:11:15;9.23;;;4.80;;
5604;SDS011;9297;47.258;11.362;2023-10-13T05:13:42;9.40;;;4.80;;
5604;SDS011;9297;47.258;11.362;2023-10-13T05:16:09;8.07;;;5.03;;
5604;SDS011;9297;47.258;11.362;2023-10-13T05:18:36;15.27;;;4.80;;
5604;SDS011;9297;47.258;11.362;2023-10-13T05:21:04;15.37;;;5.83;;
5604;SDS011;9297;47.258;11.362;2023-10-13T05:23:31;15.17;;;5.10;;
5604;SDS011;9297;47.258;11.362;2023-10-13T05:26:01;7.83;;;4.07;;
5604;SDS011;9297;47.258;11.362;2023-10-13T05:28:28;11.80;;;5.00;;
5604;SDS011;9297;47.258;11.362;2023-10-13T05:31:02;7.80;;;4.77;;
5604;SDS011;9297;47.258;11.362;2023-10-13T05:33:29;13.67;;;5.00;;
5604;SDS011;9297;47.258;11.362;2023-10-13T05:35:56;9.90;;;4.60;;
5604;SDS011;9297;47.258;11.362;2023-10-13T05:38:23;11.27;;;5.03;;
5604;SDS011;9297;47.258;11.362;2023-10-13T05:40:51;6.87;;;4.63;;
5604;SDS011;9297;47.258;11.362;2023-10-13T05:43:19;11.93;;;4.90;;
5604;SDS011;9297;47.258;11.362;2023-10-13T05:45:47;24.50;;;6.63;;
5604;SDS011;9297;47.258;11.362;2023-10-13T05:48:14;22.03;;;5.80;;
5604;SDS011;9297;47.258;11.362;2023-10-13T05:50:41;18.97;;;5.40;;
5604;SDS011;9297;47.258;11.362;2023-10-13T05:53:09;19.40;;;4.37;;
5604;SDS011;9297;47.258;11.362;2023-10-13T05:55:36;12.13;;;5.57;;
5604;SDS011;9297;47.258;11.362;2023-10-13T05:58:06;13.47;;;4.40;;
5604;SDS011;9297;47.258;11.362;2023-10-13T06:00:41;11.13;;;5.00;;
5604;SDS011;9297;47.258;11.362;2023-10-13T06:03:08;8.67;;;4.83;;
5604;SDS011;9297;47.258;11.362;2023-10-13T06:05:36;8.83;;;4.70;;
5604;SDS011;9297;47.258;11.362;2023-10-13T06:08:04;15.30;;;4.73;;
5604;SDS011;9297;47.258;11.362;2023-10-13T06:10:32;8.80;;;4.77;;
5604;SDS011;9297;47.258;11.362;2023-10-13T06:13:06;12.43;;;5.03;;
5604;SDS011;9297;47.258;11.362;2023-10-13T06:15:48;12.07;;;4.97;;
5604;SDS011;9297;47.258;11.362;2023-10-13T06:18:27;14.80;;;6.17;;
5604;SDS011;9297;47.258;11.362;2023-10-13T06:20:57;15.43;;;5.20;;
5604;SDS011;9297;47.258;11.362;2023-10-13T06:23:29;13.83;;;5.20;;
5604;SDS011;9297;47.258;11.362;2023-10-13T06:25:58;16.50;;;5.83;;
5604;SDS011;9297;47.258;11.362;2023-10-13T06:28:25;10.43;;;5.10;;
5604;SDS011;9297;47.258;11.362;2023-10-13T06:30:55;14.80;;;5.07;;
5604;SDS011;9297;47.258;11.362;2023-10-13T06:33:23;12.17;;;5.43;;
5604;SDS011;9297;47.258;11.362;2023-10-13T06:35:50;13.83;;;5.90;;
5604;SDS011;9297;47.258;11.362;2023-10-13T06:38:17;25.30;;;5.67;;
5604;SDS011;9297;47.258;11.362;2023-10-13T06:40:44;21.67;;;5.80;;
5604;SDS011;9297;47.258;11.362;2023-10-13T06:43:12;23.80;;;5.53;;
5604;SDS011;9297;47.258;11.362;2023-10-13T06:45:39;10.37;;;5.23;;
5604;SDS011;9297;47.258;11.362;2023-10-13T06:48:08;12.07;;;5.30;;
5604;SDS011;9297;47.258;11.362;2023-10-13T06:50:35;16.70;;;5.47;;
5604;SDS011;9297;47.258;11.362;2023-10-13T06:53:02;12.90;;;5.17;;
5604;SDS011;9297;47.258;11.362;2023-10-13T06:55:32;13.73;;;5.00;;
5604;SDS011;9297;47.258;11.362;2023-10-13T06:58:03;7.90;;;5.00;;
5604;SDS011;9297;47.258;11.362;2023-10-13T07:00:30;9.53;;;4.63;;
5604;SDS011;9297;47.258;11.362;2023-10-13T07:02:57;7.70;;;4.80;;
5604;SDS011;9297;47.258;11.362;2023-10-13T07:05:27;9.03;;;4.83;;
5604;SDS011;9297;47.258;11.362;2023-10-13T07:07:54;8.77;;;4.67;;
5604;SDS011;9297;47.258;11.362;2023-10-13T07:10:21;12.87;;;4.40;;
5604;SDS011;9297;47.258;11.362;2023-10-13T07:12:49;10.60;;;5.10;;
5604;SDS011;9297;47.258;11.362;2023-10-13T07:15:17;7.37;;;4.27;;
5604;SDS011;9297;47.258;11.362;2023-10-13T07:17:45;15.77;;;5.50;;
5604;SDS011;9297;47.258;11.362;2023-10-13T07:20:14;6.70;;;5.37;;
5604;SDS011;9297;47.258;11.362;2023-10-13T07:22:43;9.47;;;5.30;;
5604;SDS011;9297;47.258;11.362;2023-10-13T07:25:10;13.00;;;5.13;;
5604;SDS011;9297;47.258;11.362;2023-10-13T07:27:41;9.80;;;4.40;;
5604;SDS011;9297;47.258;11.362;2023-10-13T07:30:08;10.73;;;4.40;;
5604;SDS011;9297;47.258;11.362;2023-10-13T07:32:36;9.63;;;4.70;;
5604;SDS011;9297;47.258;11.362;2023-10-13T07:35:03;8.23;;;4.83;;
5604;SDS011;9297;47.258;11.362;2023-10-13T07:37:31;9.13;;;4.17;;
5604;SDS011;9297;47.258;11.362;2023-10-13T07:40:00;6.80;;;4.20;;
5604;SDS011;9297;47.258;11.362;2023-10-13T07:42:27;7.43;;;4.13;;
5604;SDS011;9297;47.258;11.362;2023-10-13T07:44:54;8.67;;;4.37;;
5604;SDS011;9297;47.258;11.362;2023-10-13T07:47:21;8.97;;;4.27;;
5604;SDS011;9297;47.258;11.362;2023-10-13T07:49:48;8.27;;;4.50;;
5604;SDS011;9297;47.258;11.362;2023-10-13T07:52:16;6.40;;;4.13;;
5604;SDS011;9297;47.258;11.362;2023-10-13T07:54:43;8.53;;;4.80;;
5604;SDS011;9297;47.258;11.362;2023-10-13T07:57:13;5.87;;;3.87;;
5604;SDS011;9297;47.258;11.362;2023-10-13T07:59:40;9.20;;;4.53;;
5604;SDS011;9297;47.258;11.362;2023-10-13T08:02:07;9.03;;;4.30;;
5604;SDS011;9297;47.258;11.362;2023-10-13T08:04:34;15.07;;;4.60;;
5604;SDS011;9297;47.258;11.362;2023-10-13T08:07:02;10.00;;;4.63;;
5604;SDS011;9297;47.258;11.362;2023-10-13T08:09:29;15.70;;;4.87;;
5604;SDS011;9297;47.258;11.362;2023-10-13T08:11:57;9.07;;;4.17;;
5604;SDS011;9297;47.258;11.362;2023-10-13T08:14:25;8.33;;;4.57;;
5604;SDS011;9297;47.258;11.362;2023-10-13T08:17:05;5.63;;;4.00;;
5604;SDS011;9297;47.258;11.362;2023-10-13T08:19:32;6.43;;;3.37;;
5604;SDS011;9297;47.258;11.362;2023-10-13T08:22:02;7.93;;;3.67;;
5604;SDS011;9297;47.258;11.362;2023-10-13T08:24:29;9.53;;;3.30;;
5604;SDS011;9297;47.258;11.362;2023-10-13T08:26:56;14.10;;;3.93;;
5604;SDS011;9297;47.258;11.362;2023-10-13T08:29:25;7.97;;;3.63;;
5604;SDS011;9297;47.258;11.362;2023-10-13T08:31:53;10.87;;;3.73;;
5604;SDS011;9297;47.258;11.362;2023-10-13T08:34:21;7.67;;;3.90;;
5604;SDS011;9297;47.258;11.362;2023-10-13T08:36:49;11.70;;;4.17;;
5604;SDS011;9297;47.258;11.362;2023-10-13T08:39:16;7.30;;;3.30;;
5604;SDS011;9297;47.258;11.362;2023-10-13T08:41:43;10.97;;;4.00;;
5604;SDS011;9297;47.258;11.362;2023-10-13T08:44:13;9.27;;;4.00;;
5604;SDS011;9297;47.258;11.362;2023-10-13T08:46:42;12.70;;;3.57;;
5604;SDS011;9297;47.258;11.362;2023-10-13T08:49:10;5.33;;;3.13;;
5604;SDS011;9297;47.258;11.362;2023-10-13T08:51:38;6.20;;;3.10;;
5604;SDS011;9297;47.258;11.362;2023-10-13T08:54:05;7.13;;;3.53;;
5604;SDS011;9297;47.258;11.362;2023-10-13T08:56:36;7.70;;;3.20;;
5604;SDS011;9297;47.258;11.362;2023-10-13T08:59:03;3.90;;;3.03;;
5604;SDS011;9297;47.258;11.362;2023-10-13T09:01:31;4.67;;;2.67;;
5604;SDS011;9297;47.258;11.362;2023-10-13T09:04:01;3.80;;;2.60;;
5604;SDS011;9297;47.258;11.362;2023-10-13T09:06:29;8.33;;;2.70;;
5604;SDS011;9297;47.258;11.362;2023-10-13T09:09:03;6.67;;;3.53;;
5604;SDS011;9297;47.258;11.362;2023-10-13T09:11:33;4.80;;;3.33;;
5604;SDS011;9297;47.258;11.362;2023-10-13T09:14:00;7.53;;;4.00;;
5604;SDS011;9297;47.258;11.362;2023-10-13T09:16:27;6.93;;;3.27;;
5604;SDS011;9297;47.258;11.362;2023-10-13T09:19:02;8.43;;;3.07;;
5604;SDS011;9297;47.258;11.362;2023-10-13T09:21:30;7.80;;;3.50;;
5604;SDS011;9297;47.258;11.362;2023-10-13T09:24:04;6.63;;;2.90;;
5604;SDS011;9297;47.258;11.362;2023-10-13T09:26:34;4.73;;;2.60;;
5604;SDS011;9297;47.258;11.362;2023-10-13T09:29:01;4.10;;;2.80;;
5604;SDS011;9297;47.258;11.362;2023-10-13T09:31:28;5.33;;;2.77;;
5604;SDS011;9297;47.258;11.362;2023-10-13T09:33:55;8.17;;;3.40;;
5604;SDS011;9297;47.258;11.362;2023-10-13T09:36:24;5.03;;;2.93;;
5604;SDS011;9297;47.258;11.362;2023-10-13T09:38:53;6.23;;;2.80;;
5604;SDS011;9297;47.258;11.362;2023-10-13T09:41:20;7.80;;;2.73;;
5604;SDS011;9297;47.258;11.362;2023-10-13T09:43:47;4.57;;;2.80;;
5604;SDS011;9297;47.258;11.362;2023-10-13T09:46:16;7.60;;;2.77;;
5604;SDS011;9297;47.258;11.362;2023-10-13T09:48:47;7.10;;;2.70;;
5604;SDS011;9297;47.258;11.362;2023-10-13T09:51:14;6.80;;;2.77;;
5604;SDS011;9297;47.258;11.362;2023-10-13T09:53:45;5.87;;;2.67;;
5604;SDS011;9297;47.258;11.362;2023-10-13T09:56:37;5.50;;;2.57;;
5604;SDS011;9297;47.258;11.362;2023-10-13T09:59:09;4.57;;;2.20;;
5604;SDS011;9297;47.258;11.362;2023-10-13T10:01:40;6.57;;;2.40;;
5604;SDS011;9297;47.258;11.362;2023-10-13T10:04:10;6.83;;;2.80;;
5604;SDS011;9297;47.258;11.362;2023-10-13T10:06:40;4.57;;;2.50;;
5604;SDS011;9297;47.258;11.362;2023-10-13T10:09:19;8.43;;;2.60;;
5604;SDS011;9297;47.258;11.362;2023-10-13T10:12:01;4.27;;;2.20;;
5604;SDS011;9297;47.258;11.362;2023-10-13T10:14:49;6.50;;;2.83;;
5604;SDS011;9297;47.258;11.362;2023-10-13T10:17:38;4.43;;;2.47;;
5604;SDS011;9297;47.258;11.362;2023-10-13T10:20:07;5.13;;;2.47;;
5604;SDS011;9297;47.258;11.362;2023-10-13T10:22:35;5.57;;;2.80;;
5604;SDS011;9297;47.258;11.362;2023-10-13T10:25:04;8.17;;;2.90;;
5604;SDS011;9297;47.258;11.362;2023-10-13T10:27:32;6.40;;;2.90;;
5604;SDS011;9297;47.258;11.362;2023-10-13T10:29:59;7.33;;;2.90;;
5604;SDS011;9297;47.258;11.362;2023-10-13T10:32:33;6.37;;;2.60;;
5604;SDS011;9297;47.258;11.362;2023-10-13T10:35:05;5.37;;;2.70;;
5604;SDS011;9297;47.258;11.362;2023-10-13T10:37:33;7.93;;;2.50;;
5604;SDS011;9297;47.258;11.362;2023-10-13T10:40:01;4.60;;;2.53;;
5604;SDS011;9297;47.258;11.362;2023-10-13T10:42:33;4.67;;;2.43;;
5604;SDS011;9297;47.258;11.362;2023-10-13T10:45:00;4.70;;;2.40;;
5604;SDS011;9297;47.258;11.362;2023-10-13T10:47:27;4.53;;;3.00;;
5604;SDS011;9297;47.258;11.362;2023-10-13T10:49:55;8.10;;;2.40;;
5604;SDS011;9297;47.258;11.362;2023-10-13T10:52:22;6.00;;;2.70;;
5604;SDS011;9297;47.258;11.362;2023-10-13T10:54:58;5.70;;;2.47;;
5604;SDS011;9297;47.258;11.362;2023-10-13T10:57:26;2.93;;;1.97;;
5604;SDS011;9297;47.258;11.362;2023-10-13T10:59:54;7.80;;;3.20;;
5604;SDS011;9297;47.258;11.362;2023-10-13T11:02:29;2.85;;;2.30;;
5604;SDS011;9297;47.258;11.362;2023-10-13T11:04:56;9.65;;;3.15;;
5604;SDS011;9297;47.258;11.362;2023-10-13T11:07:24;5.65;;;3.00;;
5604;SDS011;9297;47.258;11.362;2023-10-13T11:09:52;6.13;;;2.60;;
5604;SDS011;9297;47.258;11.362;2023-10-13T11:12:19;7.80;;;2.60;;
5604;SDS011;9297;47.258;11.362;2023-10-13T11:14:48;7.95;;;3.25;;
5604;SDS011;9297;47.258;11.362;2023-10-13T11:17:18;5.47;;;3.00;;
5604;SDS011;9297;47.258;11.362;2023-10-13T11:19:46;8.90;;;2.78;;
5604;SDS011;9297;47.258;11.362;2023-10-13T11:22:14;5.28;;;2.78;;
5604;SDS011;9297;47.258;11.362;2023-10-13T11:24:42;8.00;;;2.90;;
5604;SDS011;9297;47.258;11.362;2023-10-13T11:27:13;7.65;;;2.75;;
5604;SDS011;9297;47.258;11.362;2023-10-13T11:29:41;6.97;;;3.25;;
5604;SDS011;9297;47.258;11.362;2023-10-13T11:32:10;5.35;;;2.28;;
5604;SDS011;9297;47.258;11.362;2023-10-13T11:34:37;5.63;;;2.50;;
5604;SDS011;9297;47.258;11.362;2023-10-13T11:37:04;5.97;;;2.72;;
5604;SDS011;9297;47.258;11.362;2023-10-13T11:39:32;5.20;;;2.70;;
5604;SDS011;9297;47.258;11.362;2023-10-13T11:41:59;5.10;;;2.47;;
5604;SDS011;9297;47.258;11.362;2023-10-13T11:44:26;6.68;;;2.80;;
5604;SDS011;9297;47.258;11.362;2023-10-13T11:46:53;5.53;;;2.38;;
5604;SDS011;9297;47.258;11.362;2023-10-13T11:49:22;5.68;;;2.70;;
5604;SDS011;9297;47.258;11.362;2023-10-13T11:51:49;3.40;;;2.38;;
5604;SDS011;9297;47.258;11.362;2023-10-13T11:54:17;6.57;;;2.45;;
5604;SDS011;9297;47.258;11.362;2023-10-13T11:56:45;4.78;;;2.47;;
5604;SDS011;9297;47.258;11.362;2023-10-13T11:59:13;4.50;;;2.50;;
5604;SDS011;9297;47.258;11.362;2023-10-13T12:01:40;4.93;;;2.67;;
5604;SDS011;9297;47.258;11.362;2023-10-13T12:04:07;6.30;;;2.30;;
5604;SDS011;9297;47.258;11.362;2023-10-13T12:06:45;5.65;;;2.35;;
5604;SDS011;9297;47.258;11.362;2023-10-13T12:09:12;11.02;;;2.60;;
5604;SDS011;9297;47.258;11.362;2023-10-13T12:11:40;9.32;;;2.63;;
5604;SDS011;9297;47.258;11.362;2023-10-13T12:14:09;5.40;;;2.38;;
5604;SDS011;9297;47.258;11.362;2023-10-13T12:16:36;4.05;;;2.47;;
5604;SDS011;9297;47.258;11.362;2023-10-13T12:19:03;6.50;;;2.42;;
5604;SDS011;9297;47.258;11.362;2023-10-13T12:21:31;4.70;;;2.70;;
5604;SDS011;9297;47.258;11.362;2023-10-13T12:23:59;4.85;;;2.72;;
5604;SDS011;9297;47.258;11.362;2023-10-13T12:26:26;3.47;;;2.13;;
5604;SDS011;9297;47.258;11.362;2023-10-13T12:28:53;4.88;;;2.60;;
5604;SDS011;9297;47.258;11.362;2023-10-13T12:31:20;5.63;;;2.63;;
5604;SDS011;9297;47.258;11.362;2023-10-13T12:33:48;6.05;;;2.80;;
5604;SDS011;9297;47.258;11.362;2023-10-13T12:36:15;8.32;;;2.65;;
5604;SDS011;9297;47.258;11.362;2023-10-13T12:38:42;8.18;;;2.83;;
5604;SDS011;9297;47.258;11.362;2023-10-13T12:41:10;2.50;;;2.28;;
5604;SDS011;9297;47.258;11.362;2023-10-13T12:43:57;5.72;;;2.83;;
5604;SDS011;9297;47.258;11.362;2023-10-13T12:46:24;5.53;;;3.00;;
5604;SDS011;9297;47.258;11.362;2023-10-13T12:48:52;5.63;;;2.50;;
5604;SDS011;9297;47.258;11.362;2023-10-13T12:51:19;5.32;;;2.72;;
5604;SDS011;9297;47.258;11.362;2023-10-13T12:53:47;7.85;;;2.78;;
5604;SDS011;9297;47.258;11.362;2023-10-13T12:56:15;5.53;;;2.90;;
5604;SDS011;9297;47.258;11.362;2023-10-13T12:58:43;7.40;;;2.80;;
5604;SDS011;9297;47.258;11.362;2023-10-13T13:01:10;5.88;;;2.53;;
5604;SDS011;9297;47.258;11.362;2023-10-13T13:03:38;4.07;;;3.03;;
5604;SDS011;9297;47.258;11.362;2023-10-13T13:06:05;3.38;;;2.90;;
5604;SDS011;9297;47.258;11.362;2023-10-13T13:08:32;7.57;;;2.85;;
5604;SDS011;9297;47.258;11.362;2023-10-13T13:10:59;7.45;;;2.97;;
5604;SDS011;9297;47.258;11.362;2023-10-13T13:13:27;5.93;;;2.67;;
5604;SDS011;9297;47.258;11.362;2023-10-13T13:15:55;8.32;;;2.88;;
5604;SDS011;9297;47.258;11.362;2023-10-13T13:18:22;7.22;;;2.45;;
5604;SDS011;9297;47.258;11.362;2023-10-13T13:20:49;5.65;;;2.50;;
5604;SDS011;9297;47.258;11.362;2023-10-13T13:23:16;4.30;;;2.53;;
5604;SDS011;9297;47.258;11.362;2023-10-13T13:25:45;6.15;;;2.88;;
5604;SDS011;9297;47.258;11.362;2023-10-13T13:28:12;5.18;;;2.95;;
5604;SDS011;9297;47.258;11.362;2023-10-13T13:30:41;4.28;;;2.97;;
5604;SDS011;9297;47.258;11.362;2023-10-13T13:33:08;5.43;;;2.67;;
5604;SDS011;9297;47.258;11.362;2023-10-13T13:35:36;6.68;;;3.20;;
5604;SDS011;9297;47.258;11.362;2023-10-13T13:38:03;4.13;;;2.83;;
5604;SDS011;9297;47.258;11.362;2023-10-13T13:40:31;7.32;;;3.08;;
5604;SDS011;9297;47.258;11.362;2023-10-13T13:42:58;4.65;;;2.90;;
5604;SDS011;9297;47.258;11.362;2023-10-13T13:45:25;3.83;;;2.88;;
5604;SDS011;9297;47.258;11.362;2023-10-13T13:47:54;4.32;;;2.72;;
5604;SDS011;9297;47.258;11.362;2023-10-13T13:50:21;3.95;;;3.08;;
5604;SDS011;9297;47.258;11.362;2023-10-13T13:52:49;7.75;;;3.40;;
5604;SDS011;9297;47.258;11.362;2023-10-13T13:55:17;5.03;;;3.22;;
5604;SDS011;9297;47.258;11.362;2023-10-13T13:57:44;7.85;;;3.42;;
5604;SDS011;9297;47.258;11.362;2023-10-13T14:00:11;9.07;;;3.42;;
5604;SDS011;9297;47.258;11.362;2023-10-13T14:02:42;6.32;;;3.13;;
5604;SDS011;9297;47.258;11.362;2023-10-13T14:05:11;5.80;;;3.28;;
5604;SDS011;9297;47.258;11.362;2023-10-13T14:07:38;10.95;;;3.40;;
5604;SDS011;9297;47.258;11.362;2023-10-13T14:10:06;9.75;;;3.67;;
5604;SDS011;9297;47.258;11.362;2023-10-13T14:12:33;13.93;;;3.65;;
5604;SDS011;9297;47.258;11.362;2023-10-13T14:15:00;8.40;;;3.70;;
5604;SDS011;9297;47.258;11.362;2023-10-13T14:17:27;8.77;;;3.60;;
5604;SDS011;9297;47.258;11.362;2023-10-13T14:19:55;9.13;;;3.05;;
5604;SDS011;9297;47.258;11.362;2023-10-13T14:22:24;5.05;;;3.30;;
5604;SDS011;9297;47.258;11.362;2023-10-13T14:24:52;5.55;;;3.33;;
5604;SDS011;9297;47.258;11.362;2023-10-13T14:27:19;8.93;;;3.55;;
5604;SDS011;9297;47.258;11.362;2023-10-13T14:29:47;10.00;;;3.83;;
5604;SDS011;9297;47.258;11.362;2023-10-13T14:32:14;13.38;;;3.88;;
5604;SDS011;9297;47.258;11.362;2023-10-13T14:34:42;10.88;;;3.88;;
5604;SDS011;9297;47.258;11.362;2023-10-13T14:37:10;4.35;;;3.30;;
5604;SDS011;9297;47.258;11.362;2023-10-13T14:39:39;10.43;;;3.92;;
5604;SDS011;9297;47.258;11.362;2023-10-13T14:42:06;10.23;;;3.30;;
5604;SDS011;9297;47.258;11.362;2023-10-13T14:44:33;7.90;;;3.40;;
5604;SDS011;9297;47.258;11.362;2023-10-13T14:47:01;5.53;;;3.20;;
5604;SDS011;9297;47.258;11.362;2023-10-13T14:49:29;9.40;;;3.70;;
5604;SDS011;9297;47.258;11.362;2023-10-13T14:51:56;9.65;;;3.47;;
5604;SDS011;9297;47.258;11.362;2023-10-13T14:54:23;11.82;;;4.15;;
5604;SDS011;9297;47.258;11.362;2023-10-13T14:56:52;6.65;;;3.90;;
5604;SDS011;9297;47.258;11.362;2023-10-13T14:59:19;8.32;;;3.03;;
5604;SDS011;9297;47.258;11.362;2023-10-13T15:01:46;5.85;;;3.53;;
5604;SDS011;9297;47.258;11.362;2023-10-13T15:04:13;7.93;;;3.42;;